sensor_id;sensor_type;location;lat;lon;timestamp;pressure;altitude;pressure_sealevel;temperature;humidity
54592;BME280;40488;48.558;18.150;2023-04-28T00:00:14;100121.22;;;5.16;66.65
54592;BME280;40488;48.558;18.150;2023-04-28T00:02:43;100115.09;;;5.09;66.83
54592;BME280;40488;48.558;18.150;2023-04-28T00:05:15;100115.34;;;5.18;66.70
54592;BME280;40488;48.558;18.150;2023-04-28T00:07:44;100117.06;;;5.19;66.20
54592;BME280;40488;48.558;18.150;2023-04-28T00:10:13;100106.88;;;5.16;66.64
54592;BME280;40488;48.558;18.150;2023-04-28T00:12:44;100102.69;;;5.18;66.13
54592;BME280;40488;48.558;18.150;2023-04-28T00:15:13;100098.94;;;5.04;66.58
54592;BME280;40488;48.558;18.150;2023-04-28T00:17:42;100107.34;;;5.03;66.18
54592;BME280;40488;48.558;18.150;2023-04-28T00:20:11;100115.53;;;4.95;67.20
54592;BME280;40488;48.558;18.150;2023-04-28T00:22:40;100107.47;;;4.78;66.99
54592;BME280;40488;48.558;18.150;2023-04-28T00:25:09;100115.03;;;4.78;67.23
54592;BME280;40488;48.558;18.150;2023-04-28T00:27:38;100125.22;;;4.80;67.49
54592;BME280;40488;48.558;18.150;2023-04-28T00:30:09;100126.28;;;4.88;67.83
54592;BME280;40488;48.558;18.150;2023-04-28T00:32:38;100118.13;;;4.96;67.61
54592;BME280;40488;48.558;18.150;2023-04-28T00:35:08;100116.56;;;5.01;67.64
54592;BME280;40488;48.558;18.150;2023-04-28T00:37:37;100112.41;;;5.03;66.71
54592;BME280;40488;48.558;18.150;2023-04-28T00:40:07;100117.25;;;4.96;67.39
54592;BME280;40488;48.558;18.150;2023-04-28T00:42:36;100118.19;;;4.99;66.75
54592;BME280;40488;48.558;18.150;2023-04-28T00:45:05;100111.44;;;4.98;66.65
54592;BME280;40488;48.558;18.150;2023-04-28T00:47:36;100117.06;;;4.90;67.50
54592;BME280;40488;48.558;18.150;2023-04-28T00:50:06;100122.94;;;4.89;67.60
54592;BME280;40488;48.558;18.150;2023-04-28T00:52:37;100125.56;;;4.92;67.39
54592;BME280;40488;48.558;18.150;2023-04-28T00:55:07;100124.72;;;4.91;67.18
54592;BME280;40488;48.558;18.150;2023-04-28T00:57:37;100121.16;;;4.85;67.16
54592;BME280;40488;48.558;18.150;2023-04-28T01:00:07;100125.22;;;4.80;67.54
54592;BME280;40488;48.558;18.150;2023-04-28T01:02:38;100114.03;;;4.73;67.43
54592;BME280;40488;48.558;18.150;2023-04-28T01:05:08;100123.34;;;4.74;67.15
54592;BME280;40488;48.558;18.150;2023-04-28T01:07:36;100125.69;;;4.68;66.96
54592;BME280;40488;48.558;18.150;2023-04-28T01:10:07;100118.31;;;4.46;67.66
54592;BME280;40488;48.558;18.150;2023-04-28T01:12:36;100121.34;;;4.36;68.45
54592;BME280;40488;48.558;18.150;2023-04-28T01:15:07;100127.56;;;4.20;68.55
54592;BME280;40488;48.558;18.150;2023-04-28T01:17:39;100123.09;;;4.12;68.31
54592;BME280;40488;48.558;18.150;2023-04-28T01:20:09;100119.84;;;4.16;68.86
54592;BME280;40488;48.558;18.150;2023-04-28T01:22:38;100126.75;;;4.20;69.08
54592;BME280;40488;48.558;18.150;2023-04-28T01:25:09;100117.53;;;4.22;68.35
54592;BME280;40488;48.558;18.150;2023-04-28T01:27:38;100118.44;;;4.24;68.85
54592;BME280;40488;48.558;18.150;2023-04-28T01:30:08;100119.31;;;4.24;69.13
54592;BME280;40488;48.558;18.150;2023-04-28T01:32:38;100115.72;;;4.18;68.54
54592;BME280;40488;48.558;18.150;2023-04-28T01:35:07;100113.81;;;4.11;69.05
54592;BME280;40488;48.558;18.150;2023-04-28T01:37:36;100117.34;;;4.16;69.23
54592;BME280;40488;48.558;18.150;2023-04-28T01:40:06;100112.22;;;4.13;69.02
54592;BME280;40488;48.558;18.150;2023-04-28T01:42:37;100112.09;;;4.10;69.38
54592;BME280;40488;48.558;18.150;2023-04-28T01:45:07;100118.84;;;4.11;69.43
54592;BME280;40488;48.558;18.150;2023-04-28T01:47:36;100119.69;;;4.10;69.58
54592;BME280;40488;48.558;18.150;2023-04-28T01:50:06;100113.25;;;4.19;68.78
54592;BME280;40488;48.558;18.150;2023-04-28T01:52:34;100118.44;;;4.24;68.78
54592;BME280;40488;48.558;18.150;2023-04-28T01:55:04;100109.25;;;4.26;68.62
54592;BME280;40488;48.558;18.150;2023-04-28T01:57:36;100121.16;;;4.30;68.98
54592;BME280;40488;48.558;18.150;2023-04-28T02:00:07;100115.06;;;4.23;68.32
54592;BME280;40488;48.558;18.150;2023-04-28T02:02:48;100118.97;;;4.14;68.94
54592;BME280;40488;48.558;18.150;2023-04-28T02:05:18;100119.53;;;4.05;69.26
54592;BME280;40488;48.558;18.150;2023-04-28T02:07:49;100125.53;;;4.08;68.84
54592;BME280;40488;48.558;18.150;2023-04-28T02:10:19;100128.41;;;4.19;69.34
54592;BME280;40488;48.558;18.150;2023-04-28T02:12:49;100126.81;;;4.23;69.34
54592;BME280;40488;48.558;18.150;2023-04-28T02:15:18;100124.50;;;4.29;68.20
54592;BME280;40488;48.558;18.150;2023-04-28T02:17:47;100129.59;;;4.30;68.69
54592;BME280;40488;48.558;18.150;2023-04-28T02:20:16;100127.06;;;4.30;68.67
54592;BME280;40488;48.558;18.150;2023-04-28T02:22:45;100121.06;;;4.27;68.21
54592;BME280;40488;48.558;18.150;2023-04-28T02:25:14;100127.81;;;4.28;68.30
54592;BME280;40488;48.558;18.150;2023-04-28T02:27:43;100123.47;;;4.22;68.10
54592;BME280;40488;48.558;18.150;2023-04-28T02:30:14;100125.81;;;4.18;68.14
54592;BME280;40488;48.558;18.150;2023-04-28T02:32:43;100123.09;;;4.12;68.08
54592;BME280;40488;48.558;18.150;2023-04-28T02:35:15;100125.53;;;4.08;68.79
54592;BME280;40488;48.558;18.150;2023-04-28T02:37:44;100120.94;;;3.97;68.72
54592;BME280;40488;48.558;18.150;2023-04-28T02:40:14;100126.75;;;3.94;68.98
54592;BME280;40488;48.558;18.150;2023-04-28T02:42:43;100123.34;;;3.94;69.19
54592;BME280;40488;48.558;18.150;2023-04-28T02:45:13;100126.75;;;3.94;69.37
54592;BME280;40488;48.558;18.150;2023-04-28T02:47:42;100128.56;;;3.98;69.33
54592;BME280;40488;48.558;18.150;2023-04-28T02:50:11;100120.38;;;4.05;68.72
54592;BME280;40488;48.558;18.150;2023-04-28T02:52:40;100117.81;;;4.04;69.00
54592;BME280;40488;48.558;18.150;2023-04-28T02:55:09;100123.72;;;4.04;69.11
54592;BME280;40488;48.558;18.150;2023-04-28T02:57:38;100125.28;;;4.01;69.35
54592;BME280;40488;48.558;18.150;2023-04-28T03:00:08;100127.59;;;3.93;68.57
54592;BME280;40488;48.558;18.150;2023-04-28T03:02:45;100119.19;;;3.94;69.14
54592;BME280;40488;48.558;18.150;2023-04-28T03:05:15;100121.69;;;3.94;68.92
54592;BME280;40488;48.558;18.150;2023-04-28T03:07:44;100121.53;;;3.88;69.71
54592;BME280;40488;48.558;18.150;2023-04-28T03:10:14;100123.22;;;3.89;69.29
54592;BME280;40488;48.558;18.150;2023-04-28T03:12:43;100128.25;;;3.89;69.10
54592;BME280;40488;48.558;18.150;2023-04-28T03:15:12;100124.22;;;3.94;69.66
54592;BME280;40488;48.558;18.150;2023-04-28T03:17:41;100114.84;;;3.90;69.06
54592;BME280;40488;48.558;18.150;2023-04-28T03:20:12;100116.66;;;3.94;69.44
54592;BME280;40488;48.558;18.150;2023-04-28T03:22:40;100114.75;;;3.87;69.63
54592;BME280;40488;48.558;18.150;2023-04-28T03:25:09;100124.19;;;3.93;69.31
54592;BME280;40488;48.558;18.150;2023-04-28T03:27:50;100117.53;;;3.95;69.60
54592;BME280;40488;48.558;18.150;2023-04-28T03:30:19;100117.31;;;3.89;68.99
54592;BME280;40488;48.558;18.150;2023-04-28T03:32:48;100120.00;;;3.93;69.69
54592;BME280;40488;48.558;18.150;2023-04-28T03:35:18;100121.81;;;3.97;69.49
54592;BME280;40488;48.558;18.150;2023-04-28T03:37:48;100112.66;;;4.01;68.94
54592;BME280;40488;48.558;18.150;2023-04-28T03:40:17;100118.56;;;4.01;68.90
54592;BME280;40488;48.558;18.150;2023-04-28T03:43:12;100117.66;;;3.99;69.52
54592;BME280;40488;48.558;18.150;2023-04-28T03:45:54;100120.28;;;4.02;69.03
54592;BME280;40488;48.558;18.150;2023-04-28T03:48:23;100118.78;;;4.07;69.09
54592;BME280;40488;48.558;18.150;2023-04-28T03:50:54;100113.91;;;4.14;68.11
54592;BME280;40488;48.558;18.150;2023-04-28T03:53:24;100119.00;;;4.15;68.95
54592;BME280;40488;48.558;18.150;2023-04-28T03:55:53;100112.28;;;4.16;68.11
54592;BME280;40488;48.558;18.150;2023-04-28T03:58:23;100113.25;;;4.19;68.17
54592;BME280;40488;48.558;18.150;2023-04-28T04:00:52;100109.25;;;4.26;68.34
54592;BME280;40488;48.558;18.150;2023-04-28T04:03:21;100106.00;;;4.30;68.72
54592;BME280;40488;48.558;18.150;2023-04-28T04:05:56;100106.19;;;4.36;68.43
54592;BME280;40488;48.558;18.150;2023-04-28T04:08:26;100106.38;;;4.42;67.76
54592;BME280;40488;48.558;18.150;2023-04-28T04:10:55;100106.47;;;4.45;68.07
54592;BME280;40488;48.558;18.150;2023-04-28T04:13:24;100102.31;;;4.47;68.60
54592;BME280;40488;48.558;18.150;2023-04-28T04:15:53;100110.00;;;4.50;68.36
54592;BME280;40488;48.558;18.150;2023-04-28T04:18:24;100110.09;;;4.53;68.00
54592;BME280;40488;48.558;18.150;2023-04-28T04:21:18;100120.47;;;4.62;68.56
54592;BME280;40488;48.558;18.150;2023-04-28T04:23:49;100115.69;;;4.71;68.36
54592;BME280;40488;48.558;18.150;2023-04-28T04:26:19;100119.41;;;4.82;68.32
54592;BME280;40488;48.558;18.150;2023-04-28T04:28:50;100119.56;;;4.88;68.07
54592;BME280;40488;48.558;18.150;2023-04-28T04:31:18;100116.56;;;5.01;67.38
54592;BME280;40488;48.558;18.150;2023-04-28T04:33:50;100122.03;;;5.16;67.82
54592;BME280;40488;48.558;18.150;2023-04-28T04:36:22;100116.34;;;5.23;67.43
54592;BME280;40488;48.558;18.150;2023-04-28T04:38:51;100115.63;;;5.27;67.17
54592;BME280;40488;48.558;18.150;2023-04-28T04:41:22;100129.31;;;5.35;67.12
54592;BME280;40488;48.558;18.150;2023-04-28T04:44:01;100133.03;;;5.47;67.47
54592;BME280;40488;48.558;18.150;2023-04-28T04:46:37;100121.41;;;5.55;66.67
54592;BME280;40488;48.558;18.150;2023-04-28T04:49:06;100131.94;;;5.70;66.66
54592;BME280;40488;48.558;18.150;2023-04-28T04:51:37;100140.59;;;5.78;66.48
54592;BME280;40488;48.558;18.150;2023-04-28T04:54:06;100127.44;;;5.91;66.25
54592;BME280;40488;48.558;18.150;2023-04-28T04:56:37;100134.38;;;5.98;65.94
54592;BME280;40488;48.558;18.150;2023-04-28T04:59:06;100134.59;;;6.07;65.13
54592;BME280;40488;48.558;18.150;2023-04-28T05:01:41;100125.63;;;6.20;64.60
54592;BME280;40488;48.558;18.150;2023-04-28T05:04:11;100130.69;;;6.20;64.18
54592;BME280;40488;48.558;18.150;2023-04-28T05:06:42;100128.25;;;6.24;63.97
54592;BME280;40488;48.558;18.150;2023-04-28T05:09:11;100137.13;;;6.41;63.28
54592;BME280;40488;48.558;18.150;2023-04-28T05:11:40;100130.81;;;6.61;62.87
54592;BME280;40488;48.558;18.150;2023-04-28T05:14:08;100119.16;;;6.69;62.03
54592;BME280;40488;48.558;18.150;2023-04-28T05:16:40;100121.06;;;6.80;62.30
54592;BME280;40488;48.558;18.150;2023-04-28T05:19:15;100129.03;;;6.96;61.70
54592;BME280;40488;48.558;18.150;2023-04-28T05:21:45;100131.81;;;7.08;61.02
54592;BME280;40488;48.558;18.150;2023-04-28T05:24:15;100133.63;;;7.12;61.27
54592;BME280;40488;48.558;18.150;2023-04-28T05:26:44;100133.75;;;7.20;60.45
54592;BME280;40488;48.558;18.150;2023-04-28T05:29:13;100128.06;;;7.31;60.15
54592;BME280;40488;48.558;18.150;2023-04-28T05:31:42;100137.38;;;7.31;60.45
54592;BME280;40488;48.558;18.150;2023-04-28T05:34:11;100126.00;;;7.14;59.83
54592;BME280;40488;48.558;18.150;2023-04-28T05:36:40;100132.69;;;7.09;60.30
54592;BME280;40488;48.558;18.150;2023-04-28T05:39:12;100132.84;;;7.16;59.97
54592;BME280;40488;48.558;18.150;2023-04-28T05:41:41;100120.16;;;7.18;60.13
54592;BME280;40488;48.558;18.150;2023-04-28T05:44:11;100127.75;;;7.15;60.51
54592;BME280;40488;48.558;18.150;2023-04-28T05:46:40;100126.78;;;7.10;60.61
54592;BME280;40488;48.558;18.150;2023-04-28T05:49:09;100126.84;;;7.13;60.49
54592;BME280;40488;48.558;18.150;2023-04-28T05:51:38;100126.97;;;7.19;60.99
54592;BME280;40488;48.558;18.150;2023-04-28T08:11:18;100039.88;;;11.15;52.69
54592;BME280;40488;48.558;18.150;2023-04-28T08:13:47;100043.28;;;11.17;52.29
54592;BME280;40488;48.558;18.150;2023-04-28T08:16:16;100045.03;;;11.33;51.92
54592;BME280;40488;48.558;18.150;2023-04-28T08:18:46;100038.25;;;11.56;51.96
54592;BME280;40488;48.558;18.150;2023-04-28T08:21:15;100036.59;;;11.88;51.17
54592;BME280;40488;48.558;18.150;2023-04-28T08:23:44;100036.56;;;12.19;50.57
54592;BME280;40488;48.558;18.150;2023-04-28T08:26:12;100027.97;;;12.47;50.37
54592;BME280;40488;48.558;18.150;2023-04-28T08:28:43;100019.38;;;12.63;49.78
54592;BME280;40488;48.558;18.150;2023-04-28T08:31:12;100025.28;;;12.77;49.62
54592;BME280;40488;48.558;18.150;2023-04-28T08:33:41;100032.06;;;12.90;48.91
54592;BME280;40488;48.558;18.150;2023-04-28T08:36:14;100034.59;;;12.96;48.77
54592;BME280;40488;48.558;18.150;2023-04-28T08:38:44;100038.00;;;13.03;48.76
54592;BME280;40488;48.558;18.150;2023-04-28T08:41:14;100038.84;;;13.11;48.02
54592;BME280;40488;48.558;18.150;2023-04-28T08:43:45;100035.41;;;13.16;47.50
54592;BME280;40488;48.558;18.150;2023-04-28T08:46:15;100046.47;;;13.18;47.28
54592;BME280;40488;48.558;18.150;2023-04-28T08:48:48;100044.75;;;13.26;47.14
54592;BME280;40488;48.558;18.150;2023-04-28T08:51:26;100041.31;;;13.27;46.39
54592;BME280;40488;48.558;18.150;2023-04-28T08:53:58;100032.78;;;13.25;45.69
54592;BME280;40488;48.558;18.150;2023-04-28T08:56:51;100025.06;;;13.30;45.52
54592;BME280;40488;48.558;18.150;2023-04-28T08:59:21;100014.81;;;13.25;44.43
54592;BME280;40488;48.558;18.150;2023-04-28T09:01:51;100024.16;;;13.35;44.00
54592;BME280;40488;48.558;18.150;2023-04-28T09:04:21;100024.06;;;13.51;44.60
54592;BME280;40488;48.558;18.150;2023-04-28T09:06:50;100025.69;;;13.61;45.28
54592;BME280;40488;48.558;18.150;2023-04-28T09:09:20;100023.91;;;13.72;45.21
54592;BME280;40488;48.558;18.150;2023-04-28T09:11:51;100028.97;;;13.81;44.65
54592;BME280;40488;48.558;18.150;2023-04-28T09:14:21;100026.28;;;13.96;43.99
54592;BME280;40488;48.558;18.150;2023-04-28T09:16:51;100021.84;;;14.08;43.04
54592;BME280;40488;48.558;18.150;2023-04-28T09:19:20;100023.63;;;14.05;42.37
54592;BME280;40488;48.558;18.150;2023-04-28T09:21:51;100018.50;;;14.02;41.78
54592;BME280;40488;48.558;18.150;2023-04-28T09:24:29;100019.28;;;14.08;41.94
54592;BME280;40488;48.558;18.150;2023-04-28T09:26:58;100021.84;;;14.10;41.92
54592;BME280;40488;48.558;18.150;2023-04-28T09:29:30;100017.56;;;14.12;42.58
54592;BME280;40488;48.558;18.150;2023-04-28T09:32:12;100008.13;;;14.14;42.42
54592;BME280;40488;48.558;18.150;2023-04-28T09:34:42;99999.56;;;14.15;42.75
54592;BME280;40488;48.558;18.150;2023-04-28T09:37:16;100008.06;;;14.20;43.41
54592;BME280;40488;48.558;18.150;2023-04-28T09:39:48;99990.88;;;14.31;42.98
54592;BME280;40488;48.558;18.150;2023-04-28T09:42:31;99998.34;;;14.49;41.88
54592;BME280;40488;48.558;18.150;2023-04-28T09:45:03;99999.19;;;14.53;42.09
54592;BME280;40488;48.558;18.150;2023-04-28T09:47:35;99992.41;;;14.46;41.14
54592;BME280;40488;48.558;18.150;2023-04-28T09:50:06;99985.63;;;14.37;41.85
54592;BME280;40488;48.558;18.150;2023-04-28T09:52:40;99978.75;;;14.42;41.83
54592;BME280;40488;48.558;18.150;2023-04-28T09:55:11;99968.25;;;14.60;41.95
54592;BME280;40488;48.558;18.150;2023-04-28T09:57:40;99955.75;;;14.99;41.81
54592;BME280;40488;48.558;18.150;2023-04-28T10:00:12;99965.88;;;15.11;41.28
54592;BME280;40488;48.558;18.150;2023-04-28T10:02:42;99968.28;;;15.20;41.56
54592;BME280;40488;48.558;18.150;2023-04-28T10:05:15;99973.41;;;15.21;40.82
54592;BME280;40488;48.558;18.150;2023-04-28T10:07:44;99947.72;;;15.20;40.41
54592;BME280;40488;48.558;18.150;2023-04-28T10:10:13;99957.94;;;15.26;39.73
54592;BME280;40488;48.558;18.150;2023-04-28T10:12:43;99955.06;;;15.44;40.07
54592;BME280;40488;48.558;18.150;2023-04-28T10:15:14;99951.72;;;15.39;40.21
54592;BME280;40488;48.558;18.150;2023-04-28T10:17:43;99946.91;;;15.18;39.64
54592;BME280;40488;48.558;18.150;2023-04-28T10:20:14;99927.38;;;15.05;40.58
54592;BME280;40488;48.558;18.150;2023-04-28T10:22:55;99925.84;;;14.95;39.40
54592;BME280;40488;48.558;18.150;2023-04-28T10:25:30;99919.91;;;14.90;39.75
54592;BME280;40488;48.558;18.150;2023-04-28T10:28:04;99923.16;;;15.01;39.86
54592;BME280;40488;48.558;18.150;2023-04-28T10:30:35;99919.72;;;15.02;40.12
54592;BME280;40488;48.558;18.150;2023-04-28T10:35:55;99909.44;;;15.02;40.01
54592;BME280;40488;48.558;18.150;2023-04-28T10:38:24;99909.53;;;14.96;39.99
54592;BME280;40488;48.558;18.150;2023-04-28T10:40:53;99898.47;;;14.91;40.07
54592;BME280;40488;48.558;18.150;2023-04-28T10:43:35;99887.84;;;15.13;40.18
54592;BME280;40488;48.558;18.150;2023-04-28T10:46:08;99886.97;;;15.13;39.93
54592;BME280;40488;48.558;18.150;2023-04-28T10:48:52;99878.41;;;15.12;39.96
54592;BME280;40488;48.558;18.150;2023-04-28T10:51:32;99880.06;;;15.18;39.73
54592;BME280;40488;48.558;18.150;2023-04-28T10:54:15;99879.16;;;15.20;39.38
54592;BME280;40488;48.558;18.150;2023-04-28T10:59:36;99873.00;;;15.29;39.00
54592;BME280;40488;48.558;18.150;2023-04-28T11:05:13;99869.56;;;15.30;39.37
54592;BME280;40488;48.558;18.150;2023-04-28T11:13:27;99863.81;;;15.16;39.90
54592;BME280;40488;48.558;18.150;2023-04-28T11:16:04;99868.88;;;15.20;41.20
54592;BME280;40488;48.558;18.150;2023-04-28T11:18:48;99872.38;;;15.15;40.60
54592;BME280;40488;48.558;18.150;2023-04-28T11:21:24;99868.13;;;15.14;40.99
54592;BME280;40488;48.558;18.150;2023-04-28T11:23:54;99875.00;;;15.12;41.10
54592;BME280;40488;48.558;18.150;2023-04-28T11:26:26;99885.38;;;15.06;41.08
54592;BME280;40488;48.558;18.150;2023-04-28T11:28:56;99871.72;;;15.04;41.65
54592;BME280;40488;48.558;18.150;2023-04-28T11:31:26;99881.94;;;15.07;41.50
54592;BME280;40488;48.558;18.150;2023-04-28T11:34:05;99872.22;;;15.25;40.65
54592;BME280;40488;48.558;18.150;2023-04-28T11:36:37;99864.22;;;15.42;39.69
54592;BME280;40488;48.558;18.150;2023-04-28T11:39:08;99862.75;;;15.76;39.10
54592;BME280;40488;48.558;18.150;2023-04-28T11:41:39;99855.16;;;16.13;39.55
54592;BME280;40488;48.558;18.150;2023-04-28T11:44:12;99856.50;;;16.31;39.53
54592;BME280;40488;48.558;18.150;2023-04-28T11:46:44;99849.84;;;16.62;39.74
54592;BME280;40488;48.558;18.150;2023-04-28T11:49:17;99849.50;;;16.77;38.98
54592;BME280;40488;48.558;18.150;2023-04-28T11:51:49;99828.66;;;16.86;39.56
54592;BME280;40488;48.558;18.150;2023-04-28T11:54:22;99825.66;;;17.03;39.44
54592;BME280;40488;48.558;18.150;2023-04-28T11:56:53;99822.72;;;17.16;38.82
54592;BME280;40488;48.558;18.150;2023-04-28T11:59:23;99838.75;;;17.29;38.79
54592;BME280;40488;48.558;18.150;2023-04-28T12:01:55;99825.09;;;16.90;39.06
54592;BME280;40488;48.558;18.150;2023-04-28T12:04:27;99823.84;;;16.71;38.29
54592;BME280;40488;48.558;18.150;2023-04-28T12:07:02;99798.22;;;16.65;37.55
54592;BME280;40488;48.558;18.150;2023-04-28T12:09:32;99792.25;;;16.98;37.45
54592;BME280;40488;48.558;18.150;2023-04-28T12:12:02;99791.78;;;17.16;37.27
54592;BME280;40488;48.558;18.150;2023-04-28T12:14:32;99779.84;;;17.44;37.97
54592;BME280;40488;48.558;18.150;2023-04-28T12:17:02;99777.97;;;17.82;37.45
54592;BME280;40488;48.558;18.150;2023-04-28T12:19:42;99774.13;;;17.95;37.51
54592;BME280;40488;48.558;18.150;2023-04-28T12:22:14;99768.66;;;17.46;37.63
54592;BME280;40488;48.558;18.150;2023-04-28T12:24:44;99764.69;;;17.00;38.03
54592;BME280;40488;48.558;18.150;2023-04-28T12:27:14;99762.78;;;17.08;38.07
54592;BME280;40488;48.558;18.150;2023-04-28T12:29:44;99765.53;;;17.34;37.88
54592;BME280;40488;48.558;18.150;2023-04-28T12:32:14;99758.66;;;17.33;37.29
54592;BME280;40488;48.558;18.150;2023-04-28T12:34:45;99762.78;;;17.08;37.10
54592;BME280;40488;48.558;18.150;2023-04-28T12:37:15;99766.47;;;16.98;36.99
54592;BME280;40488;48.558;18.150;2023-04-28T12:39:45;99766.00;;;16.83;38.41
54592;BME280;40488;48.558;18.150;2023-04-28T12:42:14;99775.53;;;16.79;38.69
54592;BME280;40488;48.558;18.150;2023-04-28T12:44:43;99777.53;;;16.68;38.54
54592;BME280;40488;48.558;18.150;2023-04-28T12:47:12;99780.91;;;16.70;38.40
54592;BME280;40488;48.558;18.150;2023-04-28T12:49:42;99785.63;;;16.53;38.27
54592;BME280;40488;48.558;18.150;2023-04-28T12:52:11;99763.88;;;16.26;38.44
54592;BME280;40488;48.558;18.150;2023-04-28T12:54:42;99778.53;;;16.23;39.40
54592;BME280;40488;48.558;18.150;2023-04-28T12:57:13;99764.91;;;16.18;39.38
54592;BME280;40488;48.558;18.150;2023-04-28T12:59:43;99752.38;;;16.41;39.82
54592;BME280;40488;48.558;18.150;2023-04-28T13:02:13;99743.28;;;16.63;39.48
54592;BME280;40488;48.558;18.150;2023-04-28T13:04:42;99744.00;;;16.68;39.21
54592;BME280;40488;48.558;18.150;2023-04-28T13:07:14;99747.06;;;16.47;39.51
54592;BME280;40488;48.558;18.150;2023-04-28T13:09:44;99737.41;;;16.20;39.45
54592;BME280;40488;48.558;18.150;2023-04-28T13:12:14;99728.97;;;16.13;39.89
54592;BME280;40488;48.558;18.150;2023-04-28T13:14:43;99721.34;;;16.08;39.62
54592;BME280;40488;48.558;18.150;2023-04-28T13:17:12;99736.69;;;16.15;39.87
54592;BME280;40488;48.558;18.150;2023-04-28T13:19:40;99736.41;;;16.25;39.85
54592;BME280;40488;48.558;18.150;2023-04-28T13:22:10;99730.22;;;16.34;39.71
54592;BME280;40488;48.558;18.150;2023-04-28T13:24:39;99740.59;;;16.31;39.76
54592;BME280;40488;48.558;18.150;2023-04-28T13:27:09;99732.34;;;16.17;39.93
54592;BME280;40488;48.558;18.150;2023-04-28T13:29:38;99727.56;;;15.98;40.24
54592;BME280;40488;48.558;18.150;2023-04-28T13:32:07;99737.97;;;15.95;40.62
54592;BME280;40488;48.558;18.150;2023-04-28T13:34:36;99722.47;;;15.97;40.81
54592;BME280;40488;48.558;18.150;2023-04-28T13:37:05;99719.94;;;15.95;40.70
54592;BME280;40488;48.558;18.150;2023-04-28T13:39:34;99718.34;;;15.88;40.87
54592;BME280;40488;48.558;18.150;2023-04-28T13:42:03;99714.16;;;15.84;40.92
54592;BME280;40488;48.558;18.150;2023-04-28T13:44:34;99703.75;;;15.89;40.47
54592;BME280;40488;48.558;18.150;2023-04-28T13:47:03;99725.25;;;15.88;40.59
54592;BME280;40488;48.558;18.150;2023-04-28T13:49:35;99730.50;;;15.82;41.04
54592;BME280;40488;48.558;18.150;2023-04-28T13:52:06;99735.59;;;15.85;40.97
54592;BME280;40488;48.558;18.150;2023-04-28T13:54:35;99741.66;;;15.82;40.68
54592;BME280;40488;48.558;18.150;2023-04-28T13:57:04;99739.13;;;15.81;40.55
54592;BME280;40488;48.558;18.150;2023-04-28T13:59:34;99731.41;;;15.79;40.96
54592;BME280;40488;48.558;18.150;2023-04-28T14:02:03;99729.66;;;15.81;41.21
54592;BME280;40488;48.558;18.150;2023-04-28T14:04:32;99726.22;;;15.82;41.48
54592;BME280;40488;48.558;18.150;2023-04-28T14:07:01;99718.59;;;15.78;40.87
54592;BME280;40488;48.558;18.150;2023-04-28T14:09:30;99719.44;;;15.78;41.02
54592;BME280;40488;48.558;18.150;2023-04-28T14:12:00;99700.63;;;15.76;41.00
54592;BME280;40488;48.558;18.150;2023-04-28T14:14:28;99706.59;;;15.77;41.86
54592;BME280;40488;48.558;18.150;2023-04-28T14:16:59;99709.16;;;15.78;42.17
54592;BME280;40488;48.558;18.150;2023-04-28T14:19:28;99710.91;;;15.76;41.59
54592;BME280;40488;48.558;18.150;2023-04-28T14:21:57;99711.03;;;15.70;41.08
54592;BME280;40488;48.558;18.150;2023-04-28T14:24:27;99709.47;;;15.63;41.05
54592;BME280;40488;48.558;18.150;2023-04-28T14:26:55;99707.91;;;15.56;40.68
54592;BME280;40488;48.558;18.150;2023-04-28T14:29:24;99696.75;;;15.56;41.08
54592;BME280;40488;48.558;18.150;2023-04-28T14:31:53;99694.28;;;15.51;40.96
54592;BME280;40488;48.558;18.150;2023-04-28T14:34:24;99683.19;;;15.49;40.89
54592;BME280;40488;48.558;18.150;2023-04-28T14:36:53;99682.28;;;15.50;40.95
54592;BME280;40488;48.558;18.150;2023-04-28T14:39:22;99677.22;;;15.47;41.41
54592;BME280;40488;48.558;18.150;2023-04-28T14:41:51;99676.41;;;15.45;41.73
54592;BME280;40488;48.558;18.150;2023-04-28T14:44:19;99678.19;;;15.40;41.52
54592;BME280;40488;48.558;18.150;2023-04-28T14:46:48;99691.16;;;15.34;41.55
54592;BME280;40488;48.558;18.150;2023-04-28T14:49:18;99677.50;;;15.32;41.76
54592;BME280;40488;48.558;18.150;2023-04-28T14:51:49;99674.16;;;15.27;42.56
54592;BME280;40488;48.558;18.150;2023-04-28T14:54:18;99662.31;;;15.20;41.95
54592;BME280;40488;48.558;18.150;2023-04-28T14:56:48;99668.16;;;15.26;42.23
54592;BME280;40488;48.558;18.150;2023-04-28T14:59:17;99664.72;;;15.27;42.75
54592;BME280;40488;48.558;18.150;2023-04-28T15:01:47;99663.94;;;15.24;42.21
54592;BME280;40488;48.558;18.150;2023-04-28T15:04:17;99660.50;;;15.25;42.78
54592;BME280;40488;48.558;18.150;2023-04-28T15:06:46;99663.03;;;15.26;43.18
54592;BME280;40488;48.558;18.150;2023-04-28T15:09:16;99655.34;;;15.25;43.02
54592;BME280;40488;48.558;18.150;2023-04-28T15:11:45;99655.34;;;15.25;43.65
54592;BME280;40488;48.558;18.150;2023-04-28T15:14:14;99652.88;;;15.19;43.36
54592;BME280;40488;48.558;18.150;2023-04-28T15:16:43;99653.75;;;15.19;43.17
54592;BME280;40488;48.558;18.150;2023-04-28T15:19:13;99645.19;;;15.19;43.32
54592;BME280;40488;48.558;18.150;2023-04-28T15:21:43;99652.16;;;15.14;43.23
54592;BME280;40488;48.558;18.150;2023-04-28T15:24:13;99648.81;;;15.09;43.97
54592;BME280;40488;48.558;18.150;2023-04-28T15:26:43;99645.38;;;15.10;44.24
54592;BME280;40488;48.558;18.150;2023-04-28T15:29:12;99635.09;;;15.10;44.41
54592;BME280;40488;48.558;18.150;2023-04-28T15:31:41;99631.66;;;15.11;43.89
54592;BME280;40488;48.558;18.150;2023-04-28T15:34:10;99627.31;;;15.13;43.82
54592;BME280;40488;48.558;18.150;2023-04-28T15:36:39;99619.66;;;15.10;43.68